Hauptseite
METAR-TAF:

METAR-TAF

Flughäfen :

Fliegerhorst Wittmundhafen

Wittmund, Deutschland

Breite: 53-33N, Länge: 007-40E, Höhe: 8 m

Beobachtung

Neuester Wetterbericht von vor 43 Minuten, um 09:20 UTC
Wind 6 kt aus Süd
Temperatur 15°C
Luftfeuchtigkeit 82%
Luftdruck 1022 hPa
Sichtweite 10 km oder mehr
Leicht bewölkt in der Höhe von 3000 ft

METAR: ETNT 280920Z 19006KT 9999 FEW030 15/12 Q1022 BLU+BLU+

Zeit: 12:03 (10:03 UTC)

Prognose

Neuester Wetterbericht von vor 2 Stunden und 39 Minuten, um 07:24 UTC
Gültige Prognose vom 28 um 08 UTC bis 28 um 17 UTC
Wind 5 kt aus Süd/Südwest
Sichtweite 10 km oder mehr
Leicht bewölkt in der Höhe von 3000 ft

TAF: ETNT 280724Z 2808/2817 20005KT 9999 NSW FEW030 BY ETGL

Wetterbeobachtungen und Prognosen von mehr als 4000 Flughäfen (METAR und TAF Bericht).

Die verfügbaren Stationen werden durch gelbe und rote Markierungen auf der Karte dargestellt.

Führen Sie die Maus auf sie, um den Namen der Station zu sehen.

Darauf klicken, um die Beobachtung von Wetterbeobachtungen und Prognosen zu sehen.

Um die Karte zu ändern : klicken Sie auf den grünen Tasten mit einem schwarzen Kreuz Zum Vergrößern, auf den grünen Button mit einem Gedankenstrich zu verkleinern, oder auf die grünen Pfeile für benachbarte Karten.


METAR-TAF: